aviador You're here:

PATL Decoded Metar

TATALINA in AK, USA
Report Time2018-05-28 07:55:00
UTC Time2018-05-28 08:05:24
Flight Rules vfr VFR
WindCalm
Visibility9999 m
Phenomena:N/A
Clouds:Broken 055 Hf
Broken 110 Hf
Expected CloudBase > 1,200 ft AGL from Temp-Dew spread
Ceiling5,500 ft
Temp09°C (ISA -4)
Dew Point06°C (82% RH)
AAT8.1°C
QNH1012 hPa
Density Alt643 ft
Elevation965 ft
Report Wrong Elevation
Raw Report
METAR PATL 280755Z AUTO 00000KT 10SM BKN055 BKN110 09/06 A2988 RMK
AO2 SLP122 T00860060=

Extra information for PATL:More info

Metar Taf Metar & Taf Last 4 Metars F.Rules Stats Wind Profile Meteogram Temp Stats Airport Information Weather charts Add Link Nearby VenuesMetar ALERT Operation Metar Decoded Social comments

AIRNAV info for PATL